sensor_id;sensor_type;location;lat;lon;timestamp;P1;durP1;ratioP1;P2;durP2;ratioP2
8540;SDS011;4308;51.294;6.590;2023-11-19T00:01:48;2.83;;;2.30;;
8540;SDS011;4308;51.294;6.590;2023-11-19T00:04:16;2.50;;;2.30;;
8540;SDS011;4308;51.294;6.590;2023-11-19T00:06:44;3.00;;;2.07;;
8540;SDS011;4308;51.294;6.590;2023-11-19T00:09:11;2.90;;;2.20;;
8540;SDS011;4308;51.294;6.590;2023-11-19T00:11:39;3.03;;;2.23;;
8540;SDS011;4308;51.294;6.590;2023-11-19T00:14:07;3.17;;;2.50;;
8540;SDS011;4308;51.294;6.590;2023-11-19T00:16:34;2.73;;;2.53;;
8540;SDS011;4308;51.294;6.590;2023-11-19T00:19:02;4.00;;;2.60;;
8540;SDS011;4308;51.294;6.590;2023-11-19T00:21:29;2.80;;;2.53;;
8540;SDS011;4308;51.294;6.590;2023-11-19T00:23:57;3.83;;;2.93;;
8540;SDS011;4308;51.294;6.590;2023-11-19T00:26:25;3.57;;;2.80;;
8540;SDS011;4308;51.294;6.590;2023-11-19T00:28:52;3.43;;;2.93;;
8540;SDS011;4308;51.294;6.590;2023-11-19T00:31:20;2.83;;;2.60;;
8540;SDS011;4308;51.294;6.590;2023-11-19T00:33:48;3.40;;;2.50;;
8540;SDS011;4308;51.294;6.590;2023-11-19T00:36:16;3.43;;;2.80;;
8540;SDS011;4308;51.294;6.590;2023-11-19T00:38:44;3.63;;;3.07;;
8540;SDS011;4308;51.294;6.590;2023-11-19T00:41:11;6.40;;;3.07;;
8540;SDS011;4308;51.294;6.590;2023-11-19T00:43:39;6.50;;;3.20;;
8540;SDS011;4308;51.294;6.590;2023-11-19T00:46:07;8.53;;;4.10;;
8540;SDS011;4308;51.294;6.590;2023-11-19T00:48:34;6.77;;;3.43;;
8540;SDS011;4308;51.294;6.590;2023-11-19T00:51:02;3.90;;;3.50;;
8540;SDS011;4308;51.294;6.590;2023-11-19T00:53:30;3.80;;;3.33;;
8540;SDS011;4308;51.294;6.590;2023-11-19T00:55:57;3.80;;;3.47;;
8540;SDS011;4308;51.294;6.590;2023-11-19T00:58:25;3.47;;;2.73;;
8540;SDS011;4308;51.294;6.590;2023-11-19T01:00:53;4.77;;;2.80;;
8540;SDS011;4308;51.294;6.590;2023-11-19T01:03:20;3.77;;;3.03;;
8540;SDS011;4308;51.294;6.590;2023-11-19T01:05:48;3.00;;;2.50;;
8540;SDS011;4308;51.294;6.590;2023-11-19T01:08:16;2.83;;;2.63;;
8540;SDS011;4308;51.294;6.590;2023-11-19T01:10:43;2.40;;;2.20;;
8540;SDS011;4308;51.294;6.590;2023-11-19T01:13:11;2.83;;;2.40;;
8540;SDS011;4308;51.294;6.590;2023-11-19T01:15:38;3.27;;;2.17;;
8540;SDS011;4308;51.294;6.590;2023-11-19T01:18:06;4.43;;;2.20;;
8540;SDS011;4308;51.294;6.590;2023-11-19T01:20:34;3.90;;;2.30;;
8540;SDS011;4308;51.294;6.590;2023-11-19T01:23:01;2.43;;;2.17;;
8540;SDS011;4308;51.294;6.590;2023-11-19T01:25:29;3.20;;;2.10;;
8540;SDS011;4308;51.294;6.590;2023-11-19T01:27:57;2.30;;;2.10;;
8540;SDS011;4308;51.294;6.590;2023-11-19T01:30:24;3.53;;;2.13;;
8540;SDS011;4308;51.294;6.590;2023-11-19T01:32:52;3.30;;;2.00;;
8540;SDS011;4308;51.294;6.590;2023-11-19T01:35:19;2.03;;;1.83;;
8540;SDS011;4308;51.294;6.590;2023-11-19T01:37:50;3.20;;;1.90;;
8540;SDS011;4308;51.294;6.590;2023-11-19T01:40:20;3.93;;;1.87;;
8540;SDS011;4308;51.294;6.590;2023-11-19T01:42:47;3.07;;;2.60;;
8540;SDS011;4308;51.294;6.590;2023-11-19T01:45:21;4.40;;;1.80;;
8540;SDS011;4308;51.294;6.590;2023-11-19T01:47:49;4.37;;;1.90;;
8540;SDS011;4308;51.294;6.590;2023-11-19T01:50:16;3.17;;;1.97;;
8540;SDS011;4308;51.294;6.590;2023-11-19T01:52:44;5.90;;;2.03;;
8540;SDS011;4308;51.294;6.590;2023-11-19T01:55:12;4.90;;;2.20;;
8540;SDS011;4308;51.294;6.590;2023-11-19T01:57:39;6.70;;;2.00;;
8540;SDS011;4308;51.294;6.590;2023-11-19T02:00:07;4.60;;;2.53;;
8540;SDS011;4308;51.294;6.590;2023-11-19T02:02:36;3.20;;;2.00;;
8540;SDS011;4308;51.294;6.590;2023-11-19T02:05:04;3.30;;;1.83;;
8540;SDS011;4308;51.294;6.590;2023-11-19T02:07:31;4.37;;;2.10;;
8540;SDS011;4308;51.294;6.590;2023-11-19T02:09:59;5.67;;;2.10;;
8540;SDS011;4308;51.294;6.590;2023-11-19T02:12:27;5.23;;;2.07;;
8540;SDS011;4308;51.294;6.590;2023-11-19T02:14:54;4.27;;;1.97;;
8540;SDS011;4308;51.294;6.590;2023-11-19T02:17:31;5.90;;;2.27;;
8540;SDS011;4308;51.294;6.590;2023-11-19T02:19:59;5.97;;;2.30;;
8540;SDS011;4308;51.294;6.590;2023-11-19T02:22:26;4.57;;;2.17;;
8540;SDS011;4308;51.294;6.590;2023-11-19T02:24:54;6.23;;;2.47;;
8540;SDS011;4308;51.294;6.590;2023-11-19T02:27:27;5.03;;;2.27;;
8540;SDS011;4308;51.294;6.590;2023-11-19T02:29:57;7.00;;;2.30;;
8540;SDS011;4308;51.294;6.590;2023-11-19T02:32:27;7.50;;;2.40;;
8540;SDS011;4308;51.294;6.590;2023-11-19T02:34:55;7.63;;;2.53;;
8540;SDS011;4308;51.294;6.590;2023-11-19T02:37:37;7.13;;;2.70;;
8540;SDS011;4308;51.294;6.590;2023-11-19T02:40:05;10.83;;;3.27;;
8540;SDS011;4308;51.294;6.590;2023-11-19T02:42:33;10.87;;;3.40;;
8540;SDS011;4308;51.294;6.590;2023-11-19T02:45:00;7.87;;;3.10;;
8540;SDS011;4308;51.294;6.590;2023-11-19T02:47:28;7.47;;;2.67;;
8540;SDS011;4308;51.294;6.590;2023-11-19T02:49:56;10.97;;;3.27;;
8540;SDS011;4308;51.294;6.590;2023-11-19T02:52:23;11.47;;;3.60;;
8540;SDS011;4308;51.294;6.590;2023-11-19T02:54:51;10.70;;;3.50;;
8540;SDS011;4308;51.294;6.590;2023-11-19T02:57:19;8.87;;;2.93;;
8540;SDS011;4308;51.294;6.590;2023-11-19T02:59:48;9.03;;;3.30;;
8540;SDS011;4308;51.294;6.590;2023-11-19T03:02:16;9.67;;;3.30;;
8540;SDS011;4308;51.294;6.590;2023-11-19T03:04:44;12.00;;;3.53;;
8540;SDS011;4308;51.294;6.590;2023-11-19T03:07:11;10.43;;;3.20;;
8540;SDS011;4308;51.294;6.590;2023-11-19T03:09:39;10.90;;;3.40;;
8540;SDS011;4308;51.294;6.590;2023-11-19T03:12:06;14.03;;;3.40;;
8540;SDS011;4308;51.294;6.590;2023-11-19T03:14:34;13.67;;;3.43;;
8540;SDS011;4308;51.294;6.590;2023-11-19T03:17:02;12.33;;;3.47;;
8540;SDS011;4308;51.294;6.590;2023-11-19T03:19:30;15.87;;;3.83;;
8540;SDS011;4308;51.294;6.590;2023-11-19T03:21:58;13.13;;;4.00;;
8540;SDS011;4308;51.294;6.590;2023-11-19T03:24:25;10.50;;;3.10;;
8540;SDS011;4308;51.294;6.590;2023-11-19T03:26:53;11.50;;;3.80;;
8540;SDS011;4308;51.294;6.590;2023-11-19T03:29:20;15.10;;;3.43;;
8540;SDS011;4308;51.294;6.590;2023-11-19T03:31:48;17.03;;;3.73;;
8540;SDS011;4308;51.294;6.590;2023-11-19T03:34:15;13.63;;;4.13;;
8540;SDS011;4308;51.294;6.590;2023-11-19T03:36:43;18.60;;;4.23;;
8540;SDS011;4308;51.294;6.590;2023-11-19T03:39:10;13.73;;;4.07;;
8540;SDS011;4308;51.294;6.590;2023-11-19T03:41:38;18.33;;;3.73;;
8540;SDS011;4308;51.294;6.590;2023-11-19T03:44:08;13.43;;;4.07;;
8540;SDS011;4308;51.294;6.590;2023-11-19T03:46:35;18.87;;;4.10;;
8540;SDS011;4308;51.294;6.590;2023-11-19T03:49:03;15.87;;;3.63;;
8540;SDS011;4308;51.294;6.590;2023-11-19T03:51:31;19.60;;;4.97;;
8540;SDS011;4308;51.294;6.590;2023-11-19T03:53:59;18.53;;;4.63;;
8540;SDS011;4308;51.294;6.590;2023-11-19T03:56:26;19.43;;;4.40;;
8540;SDS011;4308;51.294;6.590;2023-11-19T03:58:54;18.57;;;3.73;;
8540;SDS011;4308;51.294;6.590;2023-11-19T04:01:21;21.00;;;5.00;;
8540;SDS011;4308;51.294;6.590;2023-11-19T04:03:49;22.30;;;5.00;;
8540;SDS011;4308;51.294;6.590;2023-11-19T04:06:17;27.53;;;4.67;;
8540;SDS011;4308;51.294;6.590;2023-11-19T04:08:45;18.03;;;5.00;;
8540;SDS011;4308;51.294;6.590;2023-11-19T04:11:12;18.90;;;4.83;;
8540;SDS011;4308;51.294;6.590;2023-11-19T04:13:40;18.13;;;4.53;;
8540;SDS011;4308;51.294;6.590;2023-11-19T04:16:08;19.50;;;5.20;;
8540;SDS011;4308;51.294;6.590;2023-11-19T04:18:35;22.47;;;4.53;;
8540;SDS011;4308;51.294;6.590;2023-11-19T04:21:05;25.73;;;4.90;;
8540;SDS011;4308;51.294;6.590;2023-11-19T04:23:33;22.47;;;4.97;;
8540;SDS011;4308;51.294;6.590;2023-11-19T04:26:04;23.57;;;4.83;;
8540;SDS011;4308;51.294;6.590;2023-11-19T04:28:34;25.10;;;5.10;;
8540;SDS011;4308;51.294;6.590;2023-11-19T04:31:02;25.17;;;5.67;;
8540;SDS011;4308;51.294;6.590;2023-11-19T04:33:30;33.33;;;5.37;;
8540;SDS011;4308;51.294;6.590;2023-11-19T04:35:58;20.33;;;4.43;;
8540;SDS011;4308;51.294;6.590;2023-11-19T04:38:25;22.67;;;5.03;;
8540;SDS011;4308;51.294;6.590;2023-11-19T04:40:53;19.63;;;4.93;;
8540;SDS011;4308;51.294;6.590;2023-11-19T04:43:21;19.57;;;4.00;;
8540;SDS011;4308;51.294;6.590;2023-11-19T04:45:48;24.00;;;4.67;;
8540;SDS011;4308;51.294;6.590;2023-11-19T04:48:16;23.20;;;4.87;;
8540;SDS011;4308;51.294;6.590;2023-11-19T04:50:44;19.47;;;4.77;;
8540;SDS011;4308;51.294;6.590;2023-11-19T04:53:11;18.77;;;4.70;;
8540;SDS011;4308;51.294;6.590;2023-11-19T04:55:39;18.00;;;4.07;;
8540;SDS011;4308;51.294;6.590;2023-11-19T04:58:06;24.07;;;5.03;;
8540;SDS011;4308;51.294;6.590;2023-11-19T05:00:34;27.27;;;5.20;;
8540;SDS011;4308;51.294;6.590;2023-11-19T05:03:02;24.30;;;4.07;;
8540;SDS011;4308;51.294;6.590;2023-11-19T05:05:29;22.87;;;4.63;;
8540;SDS011;4308;51.294;6.590;2023-11-19T05:07:57;24.63;;;4.70;;
8540;SDS011;4308;51.294;6.590;2023-11-19T05:10:25;24.80;;;5.10;;
8540;SDS011;4308;51.294;6.590;2023-11-19T05:12:52;22.53;;;4.67;;
8540;SDS011;4308;51.294;6.590;2023-11-19T05:15:20;26.87;;;5.10;;
8540;SDS011;4308;51.294;6.590;2023-11-19T05:17:47;24.73;;;5.30;;
8540;SDS011;4308;51.294;6.590;2023-11-19T05:20:15;26.70;;;4.90;;
8540;SDS011;4308;51.294;6.590;2023-11-19T05:22:43;22.30;;;4.63;;
8540;SDS011;4308;51.294;6.590;2023-11-19T05:25:10;17.07;;;5.00;;
8540;SDS011;4308;51.294;6.590;2023-11-19T05:27:38;20.20;;;4.17;;
8540;SDS011;4308;51.294;6.590;2023-11-19T05:30:06;25.63;;;6.10;;
8540;SDS011;4308;51.294;6.590;2023-11-19T05:32:34;26.33;;;5.03;;
8540;SDS011;4308;51.294;6.590;2023-11-19T05:35:01;25.67;;;4.60;;
8540;SDS011;4308;51.294;6.590;2023-11-19T05:37:29;20.23;;;4.97;;
8540;SDS011;4308;51.294;6.590;2023-11-19T05:39:57;22.30;;;5.40;;
8540;SDS011;4308;51.294;6.590;2023-11-19T05:42:24;24.43;;;5.40;;
8540;SDS011;4308;51.294;6.590;2023-11-19T05:44:52;19.67;;;4.77;;
8540;SDS011;4308;51.294;6.590;2023-11-19T05:47:20;22.03;;;4.93;;
8540;SDS011;4308;51.294;6.590;2023-11-19T05:49:47;26.47;;;5.23;;
8540;SDS011;4308;51.294;6.590;2023-11-19T05:52:15;28.17;;;5.00;;
8540;SDS011;4308;51.294;6.590;2023-11-19T05:54:43;27.03;;;5.43;;
8540;SDS011;4308;51.294;6.590;2023-11-19T05:57:10;20.10;;;5.00;;
8540;SDS011;4308;51.294;6.590;2023-11-19T05:59:38;23.30;;;4.97;;
8540;SDS011;4308;51.294;6.590;2023-11-19T06:02:05;19.63;;;4.60;;
8540;SDS011;4308;51.294;6.590;2023-11-19T06:04:33;20.23;;;4.43;;
8540;SDS011;4308;51.294;6.590;2023-11-19T06:07:01;22.13;;;5.20;;
8540;SDS011;4308;51.294;6.590;2023-11-19T06:09:28;23.73;;;5.43;;
8540;SDS011;4308;51.294;6.590;2023-11-19T06:11:56;19.17;;;4.87;;
8540;SDS011;4308;51.294;6.590;2023-11-19T06:14:23;21.10;;;5.67;;
8540;SDS011;4308;51.294;6.590;2023-11-19T06:16:51;23.10;;;4.20;;
8540;SDS011;4308;51.294;6.590;2023-11-19T06:19:19;25.37;;;5.10;;
8540;SDS011;4308;51.294;6.590;2023-11-19T06:21:46;27.40;;;6.13;;
8540;SDS011;4308;51.294;6.590;2023-11-19T06:24:14;20.73;;;5.00;;
8540;SDS011;4308;51.294;6.590;2023-11-19T06:26:42;22.90;;;5.33;;
8540;SDS011;4308;51.294;6.590;2023-11-19T06:29:09;20.77;;;5.23;;
8540;SDS011;4308;51.294;6.590;2023-11-19T06:31:40;21.80;;;4.80;;
8540;SDS011;4308;51.294;6.590;2023-11-19T06:34:07;19.50;;;5.27;;
8540;SDS011;4308;51.294;6.590;2023-11-19T06:36:35;28.50;;;5.47;;
8540;SDS011;4308;51.294;6.590;2023-11-19T06:39:03;25.40;;;4.60;;
8540;SDS011;4308;51.294;6.590;2023-11-19T06:41:30;28.13;;;5.47;;
8540;SDS011;4308;51.294;6.590;2023-11-19T06:43:58;28.73;;;5.40;;
8540;SDS011;4308;51.294;6.590;2023-11-19T06:46:25;22.33;;;4.93;;
8540;SDS011;4308;51.294;6.590;2023-11-19T06:48:53;22.00;;;5.40;;
8540;SDS011;4308;51.294;6.590;2023-11-19T06:51:21;21.47;;;5.80;;
8540;SDS011;4308;51.294;6.590;2023-11-19T06:53:48;31.43;;;5.50;;
8540;SDS011;4308;51.294;6.590;2023-11-19T06:56:22;23.47;;;4.80;;
8540;SDS011;4308;51.294;6.590;2023-11-19T06:58:50;24.90;;;5.17;;
8540;SDS011;4308;51.294;6.590;2023-11-19T07:01:18;31.57;;;5.17;;
8540;SDS011;4308;51.294;6.590;2023-11-19T07:03:46;23.60;;;5.83;;
8540;SDS011;4308;51.294;6.590;2023-11-19T07:06:15;29.43;;;5.50;;
8540;SDS011;4308;51.294;6.590;2023-11-19T07:08:42;25.07;;;4.87;;
8540;SDS011;4308;51.294;6.590;2023-11-19T07:11:10;23.37;;;5.20;;
8540;SDS011;4308;51.294;6.590;2023-11-19T07:13:38;26.77;;;5.33;;
8540;SDS011;4308;51.294;6.590;2023-11-19T07:16:06;26.27;;;5.63;;
8540;SDS011;4308;51.294;6.590;2023-11-19T07:18:33;25.00;;;5.07;;
8540;SDS011;4308;51.294;6.590;2023-11-19T07:21:01;29.60;;;5.50;;
8540;SDS011;4308;51.294;6.590;2023-11-19T07:23:29;22.30;;;5.17;;
8540;SDS011;4308;51.294;6.590;2023-11-19T07:25:56;25.07;;;5.77;;
8540;SDS011;4308;51.294;6.590;2023-11-19T07:28:24;28.90;;;6.37;;
8540;SDS011;4308;51.294;6.590;2023-11-19T07:30:52;17.70;;;5.03;;
8540;SDS011;4308;51.294;6.590;2023-11-19T07:33:19;28.50;;;5.07;;
8540;SDS011;4308;51.294;6.590;2023-11-19T07:35:47;31.13;;;6.57;;
8540;SDS011;4308;51.294;6.590;2023-11-19T07:38:14;21.03;;;5.80;;
8540;SDS011;4308;51.294;6.590;2023-11-19T07:40:42;29.47;;;5.83;;
8540;SDS011;4308;51.294;6.590;2023-11-19T07:43:23;31.87;;;6.27;;
8540;SDS011;4308;51.294;6.590;2023-11-19T07:45:50;30.93;;;7.27;;
8540;SDS011;4308;51.294;6.590;2023-11-19T07:48:18;35.77;;;6.00;;
8540;SDS011;4308;51.294;6.590;2023-11-19T07:50:45;41.20;;;6.60;;
8540;SDS011;4308;51.294;6.590;2023-11-19T07:53:13;27.47;;;5.37;;
8540;SDS011;4308;51.294;6.590;2023-11-19T07:55:41;25.07;;;5.33;;
8540;SDS011;4308;51.294;6.590;2023-11-19T07:58:09;29.27;;;6.30;;
8540;SDS011;4308;51.294;6.590;2023-11-19T08:00:36;36.90;;;6.47;;
8540;SDS011;4308;51.294;6.590;2023-11-19T08:03:04;28.63;;;6.80;;
8540;SDS011;4308;51.294;6.590;2023-11-19T08:05:32;25.33;;;5.17;;
8540;SDS011;4308;51.294;6.590;2023-11-19T08:08:00;28.30;;;5.97;;
8540;SDS011;4308;51.294;6.590;2023-11-19T08:10:27;28.63;;;6.20;;
8540;SDS011;4308;51.294;6.590;2023-11-19T08:12:55;29.53;;;6.20;;
8540;SDS011;4308;51.294;6.590;2023-11-19T08:15:23;31.23;;;6.27;;
8540;SDS011;4308;51.294;6.590;2023-11-19T08:17:53;26.27;;;5.70;;
8540;SDS011;4308;51.294;6.590;2023-11-19T08:20:21;26.00;;;5.63;;
8540;SDS011;4308;51.294;6.590;2023-11-19T08:22:49;26.77;;;5.80;;
8540;SDS011;4308;51.294;6.590;2023-11-19T08:25:20;25.10;;;5.63;;
8540;SDS011;4308;51.294;6.590;2023-11-19T08:27:49;26.07;;;6.43;;
8540;SDS011;4308;51.294;6.590;2023-11-19T08:30:16;41.90;;;6.63;;
8540;SDS011;4308;51.294;6.590;2023-11-19T08:32:45;22.17;;;5.13;;
8540;SDS011;4308;51.294;6.590;2023-11-19T08:35:13;25.70;;;5.90;;
8540;SDS011;4308;51.294;6.590;2023-11-19T08:37:40;25.40;;;6.03;;
8540;SDS011;4308;51.294;6.590;2023-11-19T08:40:08;25.83;;;4.83;;
8540;SDS011;4308;51.294;6.590;2023-11-19T08:42:36;30.40;;;6.50;;
8540;SDS011;4308;51.294;6.590;2023-11-19T08:45:03;20.67;;;5.30;;
8540;SDS011;4308;51.294;6.590;2023-11-19T08:47:31;24.70;;;5.03;;
8540;SDS011;4308;51.294;6.590;2023-11-19T08:49:59;29.30;;;6.57;;
8540;SDS011;4308;51.294;6.590;2023-11-19T08:52:30;29.20;;;6.03;;
8540;SDS011;4308;51.294;6.590;2023-11-19T08:55:01;24.27;;;5.93;;
8540;SDS011;4308;51.294;6.590;2023-11-19T08:57:29;28.93;;;6.07;;
8540;SDS011;4308;51.294;6.590;2023-11-19T08:59:56;28.83;;;5.10;;
8540;SDS011;4308;51.294;6.590;2023-11-19T09:02:24;32.47;;;6.43;;
8540;SDS011;4308;51.294;6.590;2023-11-19T09:04:51;26.27;;;6.37;;
8540;SDS011;4308;51.294;6.590;2023-11-19T09:07:20;24.83;;;6.73;;
8540;SDS011;4308;51.294;6.590;2023-11-19T09:09:48;28.47;;;6.97;;
8540;SDS011;4308;51.294;6.590;2023-11-19T09:12:15;27.27;;;6.07;;
8540;SDS011;4308;51.294;6.590;2023-11-19T09:14:43;24.40;;;6.17;;
8540;SDS011;4308;51.294;6.590;2023-11-19T09:17:11;29.33;;;6.53;;
8540;SDS011;4308;51.294;6.590;2023-11-19T09:19:38;26.33;;;6.63;;
8540;SDS011;4308;51.294;6.590;2023-11-19T09:22:06;32.27;;;5.97;;
8540;SDS011;4308;51.294;6.590;2023-11-19T09:24:33;29.23;;;6.03;;
8540;SDS011;4308;51.294;6.590;2023-11-19T09:27:01;28.70;;;6.30;;
8540;SDS011;4308;51.294;6.590;2023-11-19T09:29:31;25.33;;;6.43;;
8540;SDS011;4308;51.294;6.590;2023-11-19T09:31:59;35.33;;;6.70;;
8540;SDS011;4308;51.294;6.590;2023-11-19T09:34:26;32.37;;;6.27;;
8540;SDS011;4308;51.294;6.590;2023-11-19T09:36:54;31.93;;;6.77;;
8540;SDS011;4308;51.294;6.590;2023-11-19T09:39:21;30.60;;;6.30;;
8540;SDS011;4308;51.294;6.590;2023-11-19T09:41:49;30.93;;;6.30;;
8540;SDS011;4308;51.294;6.590;2023-11-19T09:44:18;28.67;;;6.30;;
8540;SDS011;4308;51.294;6.590;2023-11-19T09:46:46;26.27;;;6.03;;
8540;SDS011;4308;51.294;6.590;2023-11-19T09:49:13;27.43;;;6.20;;
8540;SDS011;4308;51.294;6.590;2023-11-19T09:51:41;28.20;;;6.30;;
8540;SDS011;4308;51.294;6.590;2023-11-19T09:54:09;28.47;;;6.30;;
8540;SDS011;4308;51.294;6.590;2023-11-19T09:56:37;22.03;;;5.30;;
8540;SDS011;4308;51.294;6.590;2023-11-19T09:59:05;26.47;;;5.57;;
8540;SDS011;4308;51.294;6.590;2023-11-19T10:01:33;27.57;;;6.10;;
8540;SDS011;4308;51.294;6.590;2023-11-19T10:04:01;27.53;;;6.23;;
8540;SDS011;4308;51.294;6.590;2023-11-19T10:06:29;25.90;;;5.80;;
8540;SDS011;4308;51.294;6.590;2023-11-19T10:08:57;25.90;;;6.37;;
8540;SDS011;4308;51.294;6.590;2023-11-19T10:11:25;29.77;;;5.17;;
8540;SDS011;4308;51.294;6.590;2023-11-19T10:13:56;26.73;;;5.67;;
8540;SDS011;4308;51.294;6.590;2023-11-19T10:16:27;23.67;;;5.47;;
8540;SDS011;4308;51.294;6.590;2023-11-19T10:18:55;22.23;;;6.00;;
8540;SDS011;4308;51.294;6.590;2023-11-19T10:21:23;21.20;;;5.33;;
8540;SDS011;4308;51.294;6.590;2023-11-19T10:23:54;23.60;;;5.37;;
8540;SDS011;4308;51.294;6.590;2023-11-19T10:26:22;25.40;;;5.10;;
8540;SDS011;4308;51.294;6.590;2023-11-19T10:28:50;25.60;;;5.97;;
8540;SDS011;4308;51.294;6.590;2023-11-19T10:31:18;27.33;;;5.70;;
8540;SDS011;4308;51.294;6.590;2023-11-19T10:33:46;26.73;;;5.53;;
8540;SDS011;4308;51.294;6.590;2023-11-19T10:36:14;26.13;;;5.87;;
8540;SDS011;4308;51.294;6.590;2023-11-19T10:38:42;23.13;;;5.43;;
8540;SDS011;4308;51.294;6.590;2023-11-19T10:41:31;26.50;;;5.83;;
8540;SDS011;4308;51.294;6.590;2023-11-19T10:43:59;30.90;;;6.47;;
8540;SDS011;4308;51.294;6.590;2023-11-19T10:46:36;26.27;;;5.37;;
8540;SDS011;4308;51.294;6.590;2023-11-19T10:49:04;23.17;;;4.93;;
8540;SDS011;4308;51.294;6.590;2023-11-19T10:51:32;26.77;;;6.23;;
8540;SDS011;4308;51.294;6.590;2023-11-19T10:54:03;21.83;;;5.07;;
8540;SDS011;4308;51.294;6.590;2023-11-19T10:56:31;22.40;;;4.93;;
8540;SDS011;4308;51.294;6.590;2023-11-19T10:58:59;18.03;;;5.03;;
8540;SDS011;4308;51.294;6.590;2023-11-19T11:01:28;26.10;;;5.60;;
8540;SDS011;4308;51.294;6.590;2023-11-19T11:03:59;21.27;;;4.50;;
8540;SDS011;4308;51.294;6.590;2023-11-19T11:06:27;24.37;;;5.77;;
8540;SDS011;4308;51.294;6.590;2023-11-19T11:08:54;17.93;;;4.37;;
8540;SDS011;4308;51.294;6.590;2023-11-19T11:11:22;22.20;;;5.30;;
8540;SDS011;4308;51.294;6.590;2023-11-19T11:13:53;24.23;;;5.50;;
8540;SDS011;4308;51.294;6.590;2023-11-19T11:16:22;17.30;;;4.27;;
8540;SDS011;4308;51.294;6.590;2023-11-19T11:18:49;26.27;;;6.10;;
8540;SDS011;4308;51.294;6.590;2023-11-19T11:21:20;22.83;;;5.70;;
8540;SDS011;4308;51.294;6.590;2023-11-19T11:29:24;21.17;;;4.30;;
8540;SDS011;4308;51.294;6.590;2023-11-19T11:34:58;15.97;;;4.03;;
8540;SDS011;4308;51.294;6.590;2023-11-19T11:37:36;19.60;;;4.53;;
8540;SDS011;4308;51.294;6.590;2023-11-19T11:40:05;19.90;;;4.43;;
8540;SDS011;4308;51.294;6.590;2023-11-19T11:42:33;19.20;;;4.53;;
8540;SDS011;4308;51.294;6.590;2023-11-19T11:48:04;21.07;;;4.77;;
8540;SDS011;4308;51.294;6.590;2023-11-19T11:50:22;20.97;;;4.57;;
8540;SDS011;4308;51.294;6.590;2023-11-19T11:55:24;21.50;;;4.53;;
8540;SDS011;4308;51.294;6.590;2023-11-19T11:57:51;20.13;;;4.50;;
8540;SDS011;4308;51.294;6.590;2023-11-19T12:00:26;15.03;;;4.57;;
8540;SDS011;4308;51.294;6.590;2023-11-19T12:02:54;16.80;;;4.27;;
8540;SDS011;4308;51.294;6.590;2023-11-19T12:05:22;20.30;;;4.60;;
8540;SDS011;4308;51.294;6.590;2023-11-19T12:07:57;20.00;;;4.90;;
8540;SDS011;4308;51.294;6.590;2023-11-19T12:10:31;15.37;;;4.30;;
8540;SDS011;4308;51.294;6.590;2023-11-19T12:12:59;19.37;;;4.67;;
8540;SDS011;4308;51.294;6.590;2023-11-19T12:15:28;15.27;;;3.80;;
8540;SDS011;4308;51.294;6.590;2023-11-19T12:17:55;21.33;;;4.73;;
8540;SDS011;4308;51.294;6.590;2023-11-19T12:20:24;20.37;;;4.80;;
8540;SDS011;4308;51.294;6.590;2023-11-19T12:22:54;17.50;;;4.80;;
8540;SDS011;4308;51.294;6.590;2023-11-19T12:25:22;23.30;;;5.17;;
8540;SDS011;4308;51.294;6.590;2023-11-19T12:27:50;18.43;;;4.27;;
8540;SDS011;4308;51.294;6.590;2023-11-19T12:30:22;20.20;;;4.40;;
8540;SDS011;4308;51.294;6.590;2023-11-19T12:32:50;22.07;;;4.73;;
8540;SDS011;4308;51.294;6.590;2023-11-19T12:35:18;17.40;;;4.10;;
8540;SDS011;4308;51.294;6.590;2023-11-19T12:37:46;19.80;;;4.50;;
8540;SDS011;4308;51.294;6.590;2023-11-19T12:40:18;16.23;;;4.10;;
8540;SDS011;4308;51.294;6.590;2023-11-19T12:42:46;16.30;;;4.60;;
8540;SDS011;4308;51.294;6.590;2023-11-19T12:45:14;18.87;;;4.20;;
8540;SDS011;4308;51.294;6.590;2023-11-19T12:47:42;17.63;;;3.70;;
8540;SDS011;4308;51.294;6.590;2023-11-19T12:50:11;19.33;;;4.33;;
8540;SDS011;4308;51.294;6.590;2023-11-19T12:52:38;18.70;;;3.90;;
8540;SDS011;4308;51.294;6.590;2023-11-19T12:57:57;19.30;;;4.13;;
8540;SDS011;4308;51.294;6.590;2023-11-19T13:00:25;23.70;;;4.63;;
8540;SDS011;4308;51.294;6.590;2023-11-19T13:02:54;17.43;;;4.17;;
8540;SDS011;4308;51.294;6.590;2023-11-19T13:10:27;22.30;;;4.63;;
8540;SDS011;4308;51.294;6.590;2023-11-19T13:13:04;19.13;;;5.17;;
8540;SDS011;4308;51.294;6.590;2023-11-19T13:15:33;23.97;;;4.33;;
8540;SDS011;4308;51.294;6.590;2023-11-19T13:18:00;21.73;;;4.57;;
8540;SDS011;4308;51.294;6.590;2023-11-19T13:20:29;17.03;;;4.20;;
8540;SDS011;4308;51.294;6.590;2023-11-19T13:23:00;19.63;;;4.57;;
8540;SDS011;4308;51.294;6.590;2023-11-19T13:25:28;15.93;;;4.60;;
8540;SDS011;4308;51.294;6.590;2023-11-19T13:27:56;18.33;;;4.93;;
8540;SDS011;4308;51.294;6.590;2023-11-19T13:30:24;14.83;;;3.90;;
8540;SDS011;4308;51.294;6.590;2023-11-19T13:32:54;22.90;;;4.23;;
8540;SDS011;4308;51.294;6.590;2023-11-19T13:35:21;15.70;;;4.37;;
8540;SDS011;4308;51.294;6.590;2023-11-19T13:37:49;19.53;;;4.87;;
8540;SDS011;4308;51.294;6.590;2023-11-19T13:40:17;21.67;;;4.77;;
8540;SDS011;4308;51.294;6.590;2023-11-19T13:42:44;15.47;;;4.60;;
8540;SDS011;4308;51.294;6.590;2023-11-19T13:45:12;23.97;;;5.10;;
8540;SDS011;4308;51.294;6.590;2023-11-19T13:47:41;23.13;;;4.67;;
8540;SDS011;4308;51.294;6.590;2023-11-19T13:50:13;20.20;;;4.53;;
8540;SDS011;4308;51.294;6.590;2023-11-19T13:52:42;16.87;;;5.00;;
8540;SDS011;4308;51.294;6.590;2023-11-19T13:55:09;20.87;;;5.37;;
8540;SDS011;4308;51.294;6.590;2023-11-19T13:57:38;19.17;;;4.53;;
8540;SDS011;4308;51.294;6.590;2023-11-19T14:00:06;13.40;;;4.33;;
8540;SDS011;4308;51.294;6.590;2023-11-19T14:02:34;25.93;;;4.53;;
8540;SDS011;4308;51.294;6.590;2023-11-19T14:05:02;20.23;;;5.17;;
8540;SDS011;4308;51.294;6.590;2023-11-19T14:07:29;23.20;;;4.80;;
8540;SDS011;4308;51.294;6.590;2023-11-19T14:09:57;17.53;;;4.63;;
8540;SDS011;4308;51.294;6.590;2023-11-19T14:12:25;20.33;;;4.77;;
8540;SDS011;4308;51.294;6.590;2023-11-19T14:14:52;25.20;;;4.73;;
8540;SDS011;4308;51.294;6.590;2023-11-19T14:17:20;21.13;;;4.87;;
8540;SDS011;4308;51.294;6.590;2023-11-19T14:19:48;21.57;;;5.10;;
8540;SDS011;4308;51.294;6.590;2023-11-19T14:22:15;17.67;;;4.83;;
8540;SDS011;4308;51.294;6.590;2023-11-19T14:24:43;25.40;;;5.37;;
8540;SDS011;4308;51.294;6.590;2023-11-19T14:27:11;16.73;;;4.00;;
8540;SDS011;4308;51.294;6.590;2023-11-19T14:29:38;13.10;;;4.20;;
8540;SDS011;4308;51.294;6.590;2023-11-19T14:32:06;20.53;;;4.87;;
8540;SDS011;4308;51.294;6.590;2023-11-19T14:34:34;17.00;;;4.17;;
8540;SDS011;4308;51.294;6.590;2023-11-19T14:37:01;18.77;;;4.43;;
8540;SDS011;4308;51.294;6.590;2023-11-19T14:39:29;21.73;;;5.00;;
8540;SDS011;4308;51.294;6.590;2023-11-19T14:41:57;20.03;;;4.90;;
8540;SDS011;4308;51.294;6.590;2023-11-19T14:44:24;19.67;;;4.50;;
8540;SDS011;4308;51.294;6.590;2023-11-19T14:46:52;21.57;;;4.63;;
8540;SDS011;4308;51.294;6.590;2023-11-19T14:49:20;19.43;;;4.17;;
8540;SDS011;4308;51.294;6.590;2023-11-19T14:51:47;21.57;;;4.57;;
8540;SDS011;4308;51.294;6.590;2023-11-19T14:54:15;22.87;;;5.23;;
8540;SDS011;4308;51.294;6.590;2023-11-19T14:56:42;20.00;;;5.00;;
8540;SDS011;4308;51.294;6.590;2023-11-19T14:59:10;26.03;;;4.97;;
8540;SDS011;4308;51.294;6.590;2023-11-19T15:01:38;20.57;;;4.50;;
8540;SDS011;4308;51.294;6.590;2023-11-19T15:04:05;22.37;;;5.37;;
8540;SDS011;4308;51.294;6.590;2023-11-19T15:06:33;17.67;;;4.97;;
8540;SDS011;4308;51.294;6.590;2023-11-19T15:09:01;21.73;;;4.17;;
8540;SDS011;4308;51.294;6.590;2023-11-19T15:11:29;17.00;;;4.40;;
8540;SDS011;4308;51.294;6.590;2023-11-19T15:13:56;24.23;;;5.40;;
8540;SDS011;4308;51.294;6.590;2023-11-19T15:16:24;24.17;;;5.17;;
8540;SDS011;4308;51.294;6.590;2023-11-19T15:18:52;21.10;;;5.60;;
8540;SDS011;4308;51.294;6.590;2023-11-19T15:21:20;21.03;;;5.07;;
8540;SDS011;4308;51.294;6.590;2023-11-19T15:23:48;21.67;;;5.10;;
8540;SDS011;4308;51.294;6.590;2023-11-19T15:26:16;19.70;;;4.50;;
8540;SDS011;4308;51.294;6.590;2023-11-19T15:28:44;18.77;;;4.67;;
8540;SDS011;4308;51.294;6.590;2023-11-19T15:31:11;21.30;;;5.10;;
8540;SDS011;4308;51.294;6.590;2023-11-19T15:33:39;25.13;;;4.60;;